sensor_id;sensor_type;location;lat;lon;timestamp;temperature;humidity
2054;DHT22;1032;52.542;13.440;2022-07-29T00:00:20;18.10;78.00
2054;DHT22;1032;52.542;13.440;2022-07-29T00:02:46;18.20;78.80
2054;DHT22;1032;52.542;13.440;2022-07-29T00:05:13;18.20;78.70
2054;DHT22;1032;52.542;13.440;2022-07-29T00:07:39;18.20;79.10
2054;DHT22;1032;52.542;13.440;2022-07-29T00:10:07;18.20;79.20
2054;DHT22;1032;52.542;13.440;2022-07-29T00:12:35;18.00;79.30
2054;DHT22;1032;52.542;13.440;2022-07-29T00:15:02;18.00;79.60
2054;DHT22;1032;52.542;13.440;2022-07-29T00:17:29;17.90;79.80
2054;DHT22;1032;52.542;13.440;2022-07-29T00:19:56;18.40;80.70
2054;DHT22;1032;52.542;13.440;2022-07-29T00:22:22;17.90;80.40
2054;DHT22;1032;52.542;13.440;2022-07-29T00:24:49;17.80;80.50
2054;DHT22;1032;52.542;13.440;2022-07-29T00:27:16;18.10;80.80
2054;DHT22;1032;52.542;13.440;2022-07-29T00:29:44;17.70;80.70
2054;DHT22;1032;52.542;13.440;2022-07-29T00:32:11;17.80;81.00
2054;DHT22;1032;52.542;13.440;2022-07-29T00:34:38;17.80;81.50
2054;DHT22;1032;52.542;13.440;2022-07-29T00:37:22;17.60;81.20
2054;DHT22;1032;52.542;13.440;2022-07-29T00:39:49;17.90;81.90
2054;DHT22;1032;52.542;13.440;2022-07-29T00:42:16;17.70;82.10
2054;DHT22;1032;52.542;13.440;2022-07-29T00:44:44;17.50;82.00
2054;DHT22;1032;52.542;13.440;2022-07-29T00:47:11;17.60;82.40
2054;DHT22;1032;52.542;13.440;2022-07-29T00:49:39;17.50;82.60
2054;DHT22;1032;52.542;13.440;2022-07-29T00:52:06;17.70;83.20
2054;DHT22;1032;52.542;13.440;2022-07-29T00:54:34;17.60;83.30
2054;DHT22;1032;52.542;13.440;2022-07-29T00:57:01;17.50;83.20
2054;DHT22;1032;52.542;13.440;2022-07-29T00:59:28;17.50;83.50
2054;DHT22;1032;52.542;13.440;2022-07-29T01:01:56;17.50;83.50
2054;DHT22;1032;52.542;13.440;2022-07-29T01:04:23;17.50;83.60
2054;DHT22;1032;52.542;13.440;2022-07-29T01:06:50;17.70;84.30
2054;DHT22;1032;52.542;13.440;2022-07-29T01:09:18;17.30;83.80
2054;DHT22;1032;52.542;13.440;2022-07-29T01:11:46;17.50;84.30
2054;DHT22;1032;52.542;13.440;2022-07-29T01:14:14;17.60;84.80
2054;DHT22;1032;52.542;13.440;2022-07-29T01:16:45;17.50;84.70
2054;DHT22;1032;52.542;13.440;2022-07-29T01:19:26;17.40;85.10
2054;DHT22;1032;52.542;13.440;2022-07-29T01:21:59;17.00;84.80
2054;DHT22;1032;52.542;13.440;2022-07-29T01:24:48;17.50;85.50
2054;DHT22;1032;52.542;13.440;2022-07-29T01:27:37;17.90;86.50
2054;DHT22;1032;52.542;13.440;2022-07-29T01:30:07;17.50;86.20
2054;DHT22;1032;52.542;13.440;2022-07-29T01:32:38;17.20;86.10
2054;DHT22;1032;52.542;13.440;2022-07-29T01:35:08;17.20;86.20
2054;DHT22;1032;52.542;13.440;2022-07-29T01:37:41;17.20;86.50
2054;DHT22;1032;52.542;13.440;2022-07-29T01:40:22;17.20;86.70
2054;DHT22;1032;52.542;13.440;2022-07-29T01:42:52;17.20;87.20
2054;DHT22;1032;52.542;13.440;2022-07-29T01:45:26;17.50;87.90
2054;DHT22;1032;52.542;13.440;2022-07-29T01:48:02;17.10;87.80
2054;DHT22;1032;52.542;13.440;2022-07-29T01:50:33;17.30;88.40
2054;DHT22;1032;52.542;13.440;2022-07-29T01:53:03;17.00;88.40
2054;DHT22;1032;52.542;13.440;2022-07-29T01:55:34;16.40;88.30
2054;DHT22;1032;52.542;13.440;2022-07-29T01:58:03;16.60;88.80
2054;DHT22;1032;52.542;13.440;2022-07-29T02:00:33;17.00;89.60
2054;DHT22;1032;52.542;13.440;2022-07-29T02:03:04;16.60;89.50
2054;DHT22;1032;52.542;13.440;2022-07-29T02:05:32;17.30;90.20
2054;DHT22;1032;52.542;13.440;2022-07-29T02:08:00;17.00;90.10
2054;DHT22;1032;52.542;13.440;2022-07-29T02:10:30;16.90;90.10
2054;DHT22;1032;52.542;13.440;2022-07-29T02:12:58;17.00;90.20
2054;DHT22;1032;52.542;13.440;2022-07-29T02:15:28;16.80;90.00
2054;DHT22;1032;52.542;13.440;2022-07-29T02:17:59;17.50;90.70
2054;DHT22;1032;52.542;13.440;2022-07-29T02:20:28;16.60;90.30
2054;DHT22;1032;52.542;13.440;2022-07-29T02:22:55;16.60;90.30
2054;DHT22;1032;52.542;13.440;2022-07-29T02:25:24;16.70;90.40
2054;DHT22;1032;52.542;13.440;2022-07-29T02:27:51;16.70;90.40
2054;DHT22;1032;52.542;13.440;2022-07-29T02:30:19;17.00;90.60
2054;DHT22;1032;52.542;13.440;2022-07-29T02:32:48;16.70;90.70
2054;DHT22;1032;52.542;13.440;2022-07-29T02:35:17;16.90;90.80
2054;DHT22;1032;52.542;13.440;2022-07-29T02:37:45;16.50;90.50
2054;DHT22;1032;52.542;13.440;2022-07-29T02:40:34;16.90;90.70
2054;DHT22;1032;52.542;13.440;2022-07-29T02:43:03;16.70;90.70
2054;DHT22;1032;52.542;13.440;2022-07-29T02:45:30;16.70;90.80
2054;DHT22;1032;52.542;13.440;2022-07-29T02:47:58;16.50;90.80
2054;DHT22;1032;52.542;13.440;2022-07-29T02:50:31;16.80;90.90
2054;DHT22;1032;52.542;13.440;2022-07-29T02:53:02;16.60;90.80
2054;DHT22;1032;52.542;13.440;2022-07-29T02:55:33;16.70;90.80
2054;DHT22;1032;52.542;13.440;2022-07-29T02:58:02;16.80;90.60
2054;DHT22;1032;52.542;13.440;2022-07-29T03:00:31;16.90;91.00
2054;DHT22;1032;52.542;13.440;2022-07-29T03:03:00;16.60;90.70
2054;DHT22;1032;52.542;13.440;2022-07-29T03:05:29;17.10;91.00
2054;DHT22;1032;52.542;13.440;2022-07-29T03:08:00;16.80;90.50
2054;DHT22;1032;52.542;13.440;2022-07-29T03:10:27;17.00;90.90
2054;DHT22;1032;52.542;13.440;2022-07-29T03:12:55;16.70;90.50
2054;DHT22;1032;52.542;13.440;2022-07-29T03:15:22;16.40;90.60
2054;DHT22;1032;52.542;13.440;2022-07-29T03:17:49;16.70;90.80
2054;DHT22;1032;52.542;13.440;2022-07-29T03:20:17;16.50;90.70
2054;DHT22;1032;52.542;13.440;2022-07-29T03:22:45;17.10;90.90
2054;DHT22;1032;52.542;13.440;2022-07-29T03:25:14;16.20;90.40
2054;DHT22;1032;52.542;13.440;2022-07-29T03:27:41;16.40;90.50
2054;DHT22;1032;52.542;13.440;2022-07-29T03:30:10;16.80;90.50
2054;DHT22;1032;52.542;13.440;2022-07-29T03:32:37;16.70;90.70
2054;DHT22;1032;52.542;13.440;2022-07-29T03:35:12;17.20;90.90
2054;DHT22;1032;52.542;13.440;2022-07-29T03:37:39;16.90;90.40
2054;DHT22;1032;52.542;13.440;2022-07-29T03:40:09;16.70;90.40
2054;DHT22;1032;52.542;13.440;2022-07-29T03:42:39;16.80;90.40
2054;DHT22;1032;52.542;13.440;2022-07-29T03:45:09;16.70;90.70
2054;DHT22;1032;52.542;13.440;2022-07-29T03:47:39;16.70;90.50
2054;DHT22;1032;52.542;13.440;2022-07-29T03:50:09;16.70;90.50
2054;DHT22;1032;52.542;13.440;2022-07-29T03:52:37;16.80;90.60
2054;DHT22;1032;52.542;13.440;2022-07-29T03:55:15;16.70;90.80
2054;DHT22;1032;52.542;13.440;2022-07-29T03:57:42;16.80;90.60
2054;DHT22;1032;52.542;13.440;2022-07-29T04:00:10;16.80;90.60
2054;DHT22;1032;52.542;13.440;2022-07-29T04:02:38;16.70;90.80
2054;DHT22;1032;52.542;13.440;2022-07-29T04:05:11;16.90;90.90
2054;DHT22;1032;52.542;13.440;2022-07-29T04:07:38;16.90;90.70
2054;DHT22;1032;52.542;13.440;2022-07-29T04:10:06;16.70;90.50
2054;DHT22;1032;52.542;13.440;2022-07-29T04:12:34;16.80;90.80
2054;DHT22;1032;52.542;13.440;2022-07-29T04:15:01;16.80;90.80
2054;DHT22;1032;52.542;13.440;2022-07-29T04:17:28;17.00;90.60
2054;DHT22;1032;52.542;13.440;2022-07-29T04:19:54;17.30;91.10
2054;DHT22;1032;52.542;13.440;2022-07-29T04:22:21;16.80;90.50
2054;DHT22;1032;52.542;13.440;2022-07-29T04:24:48;17.00;90.50
2054;DHT22;1032;52.542;13.440;2022-07-29T04:27:14;17.40;90.90
2054;DHT22;1032;52.542;13.440;2022-07-29T04:29:42;16.90;90.40
2054;DHT22;1032;52.542;13.440;2022-07-29T04:32:08;16.90;90.60
2054;DHT22;1032;52.542;13.440;2022-07-29T04:34:35;17.50;90.80
2054;DHT22;1032;52.542;13.440;2022-07-29T04:37:02;17.00;90.10
2054;DHT22;1032;52.542;13.440;2022-07-29T04:39:28;17.60;90.50
2054;DHT22;1032;52.542;13.440;2022-07-29T04:41:55;17.50;89.80
2054;DHT22;1032;52.542;13.440;2022-07-29T04:44:22;17.40;89.30
2054;DHT22;1032;52.542;13.440;2022-07-29T04:46:50;17.50;89.20
2054;DHT22;1032;52.542;13.440;2022-07-29T04:49:16;17.60;89.10
2054;DHT22;1032;52.542;13.440;2022-07-29T04:51:43;17.40;88.70
2054;DHT22;1032;52.542;13.440;2022-07-29T04:56:36;17.60;88.50
2054;DHT22;1032;52.542;13.440;2022-07-29T04:59:03;17.80;88.40
2054;DHT22;1032;52.542;13.440;2022-07-29T05:01:32;17.50;88.10
2054;DHT22;1032;52.542;13.440;2022-07-29T05:03:59;17.60;88.20
2054;DHT22;1032;52.542;13.440;2022-07-29T05:06:26;18.00;89.40
2054;DHT22;1032;52.542;13.440;2022-07-29T05:11:20;17.90;88.60
2054;DHT22;1032;52.542;13.440;2022-07-29T05:13:46;17.70;88.20
2054;DHT22;1032;52.542;13.440;2022-07-29T05:16:13;17.60;87.90
2054;DHT22;1032;52.542;13.440;2022-07-29T05:18:40;18.00;88.00
2054;DHT22;1032;52.542;13.440;2022-07-29T05:21:08;17.90;88.20
2054;DHT22;1032;52.542;13.440;2022-07-29T05:23:35;18.10;87.40
2054;DHT22;1032;52.542;13.440;2022-07-29T05:26:20;18.50;88.20
2054;DHT22;1032;52.542;13.440;2022-07-29T05:28:46;18.50;87.80
2054;DHT22;1032;52.542;13.440;2022-07-29T05:31:13;18.40;86.60
2054;DHT22;1032;52.542;13.440;2022-07-29T05:33:40;18.30;86.20
2054;DHT22;1032;52.542;13.440;2022-07-29T05:36:27;18.20;86.30
2054;DHT22;1032;52.542;13.440;2022-07-29T05:38:53;18.50;85.30
2054;DHT22;1032;52.542;13.440;2022-07-29T05:41:20;18.40;85.90
2054;DHT22;1032;52.542;13.440;2022-07-29T05:43:47;19.00;86.20
2054;DHT22;1032;52.542;13.440;2022-07-29T05:46:13;18.60;84.90
2054;DHT22;1032;52.542;13.440;2022-07-29T05:48:40;18.40;84.80
2054;DHT22;1032;52.542;13.440;2022-07-29T05:51:07;19.00;86.00
2054;DHT22;1032;52.542;13.440;2022-07-29T05:53:35;18.40;84.70
2054;DHT22;1032;52.542;13.440;2022-07-29T05:56:03;18.50;85.50
2054;DHT22;1032;52.542;13.440;2022-07-29T05:58:30;18.90;85.20
2054;DHT22;1032;52.542;13.440;2022-07-29T06:00:57;19.00;85.80
2054;DHT22;1032;52.542;13.440;2022-07-29T06:03:24;18.70;84.70
2054;DHT22;1032;52.542;13.440;2022-07-29T06:08:18;18.70;84.30
2054;DHT22;1032;52.542;13.440;2022-07-29T06:10:46;18.80;84.40
2054;DHT22;1032;52.542;13.440;2022-07-29T06:13:13;18.50;84.50
2054;DHT22;1032;52.542;13.440;2022-07-29T06:15:41;19.50;85.20
2054;DHT22;1032;52.542;13.440;2022-07-29T06:18:08;19.20;83.50
2054;DHT22;1032;52.542;13.440;2022-07-29T06:20:35;19.40;83.60
2054;DHT22;1032;52.542;13.440;2022-07-29T06:23:02;19.50;82.90
2054;DHT22;1032;52.542;13.440;2022-07-29T06:25:30;19.80;82.30
2054;DHT22;1032;52.542;13.440;2022-07-29T06:27:58;19.60;82.10
2054;DHT22;1032;52.542;13.440;2022-07-29T06:32:54;20.30;80.60
2054;DHT22;1032;52.542;13.440;2022-07-29T06:35:20;20.40;80.00
2054;DHT22;1032;52.542;13.440;2022-07-29T06:37:47;20.60;79.50
2054;DHT22;1032;52.542;13.440;2022-07-29T06:40:14;20.50;78.30
2054;DHT22;1032;52.542;13.440;2022-07-29T06:42:59;20.70;78.70
2054;DHT22;1032;52.542;13.440;2022-07-29T06:45:26;20.70;78.50
2054;DHT22;1032;52.542;13.440;2022-07-29T06:47:53;20.60;78.30
2054;DHT22;1032;52.542;13.440;2022-07-29T06:50:19;20.70;77.40
2054;DHT22;1032;52.542;13.440;2022-07-29T06:52:47;20.40;78.40
2054;DHT22;1032;52.542;13.440;2022-07-29T06:55:13;20.70;78.10
2054;DHT22;1032;52.542;13.440;2022-07-29T06:57:40;20.90;78.80
2054;DHT22;1032;52.542;13.440;2022-07-29T07:00:10;20.70;77.70
2054;DHT22;1032;52.542;13.440;2022-07-29T07:02:37;20.70;77.60
2054;DHT22;1032;52.542;13.440;2022-07-29T07:05:04;20.80;78.30
2054;DHT22;1032;52.542;13.440;2022-07-29T07:07:31;20.80;78.00
2054;DHT22;1032;52.542;13.440;2022-07-29T07:09:58;20.70;77.00
2054;DHT22;1032;52.542;13.440;2022-07-29T07:12:24;21.30;78.00
2054;DHT22;1032;52.542;13.440;2022-07-29T07:14:51;20.80;76.50
2054;DHT22;1032;52.542;13.440;2022-07-29T07:17:19;21.40;77.50
2054;DHT22;1032;52.542;13.440;2022-07-29T07:19:45;21.00;75.90
2054;DHT22;1032;52.542;13.440;2022-07-29T07:22:12;21.30;75.30
2054;DHT22;1032;52.542;13.440;2022-07-29T07:24:39;21.50;75.00
2054;DHT22;1032;52.542;13.440;2022-07-29T07:27:05;21.40;74.50
2054;DHT22;1032;52.542;13.440;2022-07-29T07:29:32;21.80;74.60
2054;DHT22;1032;52.542;13.440;2022-07-29T07:31:59;21.50;74.60
2054;DHT22;1032;52.542;13.440;2022-07-29T07:34:27;21.50;74.40
2054;DHT22;1032;52.542;13.440;2022-07-29T07:36:53;21.70;74.70
2054;DHT22;1032;52.542;13.440;2022-07-29T07:39:20;21.60;73.50
2054;DHT22;1032;52.542;13.440;2022-07-29T07:44:13;21.60;73.60
2054;DHT22;1032;52.542;13.440;2022-07-29T07:46:40;21.90;74.70
2054;DHT22;1032;52.542;13.440;2022-07-29T07:49:07;21.60;73.60
2054;DHT22;1032;52.542;13.440;2022-07-29T07:51:34;21.80;73.50
2054;DHT22;1032;52.542;13.440;2022-07-29T07:54:01;21.60;73.70
2054;DHT22;1032;52.542;13.440;2022-07-29T07:56:28;21.30;72.90
2054;DHT22;1032;52.542;13.440;2022-07-29T07:58:54;21.80;73.50
2054;DHT22;1032;52.542;13.440;2022-07-29T08:01:21;21.70;72.10
2054;DHT22;1032;52.542;13.440;2022-07-29T08:03:48;21.40;71.10
2054;DHT22;1032;52.542;13.440;2022-07-29T08:06:15;21.80;70.60
2054;DHT22;1032;52.542;13.440;2022-07-29T08:08:43;21.70;70.50
2054;DHT22;1032;52.542;13.440;2022-07-29T08:11:10;21.90;70.40
2054;DHT22;1032;52.542;13.440;2022-07-29T08:13:37;21.70;70.30
2054;DHT22;1032;52.542;13.440;2022-07-29T08:16:04;21.70;69.50
2054;DHT22;1032;52.542;13.440;2022-07-29T08:18:39;22.00;69.80
2054;DHT22;1032;52.542;13.440;2022-07-29T08:23:33;21.90;68.40
2054;DHT22;1032;52.542;13.440;2022-07-29T08:26:05;22.10;68.20
2054;DHT22;1032;52.542;13.440;2022-07-29T08:28:35;22.50;67.90
2054;DHT22;1032;52.542;13.440;2022-07-29T08:31:02;22.10;67.90
2054;DHT22;1032;52.542;13.440;2022-07-29T08:33:29;22.30;68.60
2054;DHT22;1032;52.542;13.440;2022-07-29T08:35:58;22.20;67.10
2054;DHT22;1032;52.542;13.440;2022-07-29T08:38:25;22.60;65.60
2054;DHT22;1032;52.542;13.440;2022-07-29T08:40:52;22.50;65.50
2054;DHT22;1032;52.542;13.440;2022-07-29T08:43:36;22.50;65.30
2054;DHT22;1032;52.542;13.440;2022-07-29T08:46:12;22.60;65.50
2054;DHT22;1032;52.542;13.440;2022-07-29T08:48:41;22.20;62.20
2054;DHT22;1032;52.542;13.440;2022-07-29T08:51:08;22.30;63.10
2054;DHT22;1032;52.542;13.440;2022-07-29T08:56:07;22.70;63.30
2054;DHT22;1032;52.542;13.440;2022-07-29T08:58:39;22.80;63.40
2054;DHT22;1032;52.542;13.440;2022-07-29T09:01:06;22.40;63.80
2054;DHT22;1032;52.542;13.440;2022-07-29T09:03:36;22.80;63.70
2054;DHT22;1032;52.542;13.440;2022-07-29T09:06:04;22.70;64.00
2054;DHT22;1032;52.542;13.440;2022-07-29T09:08:32;22.50;62.50
2054;DHT22;1032;52.542;13.440;2022-07-29T09:11:00;22.80;63.00
2054;DHT22;1032;52.542;13.440;2022-07-29T09:13:28;22.80;62.60
2054;DHT22;1032;52.542;13.440;2022-07-29T09:15:56;22.90;62.60
2054;DHT22;1032;52.542;13.440;2022-07-29T09:18:36;23.00;62.10
2054;DHT22;1032;52.542;13.440;2022-07-29T09:21:04;23.10;62.00
2054;DHT22;1032;52.542;13.440;2022-07-29T09:24:00;23.10;62.50
2054;DHT22;1032;52.542;13.440;2022-07-29T09:26:28;23.30;61.20
2054;DHT22;1032;52.542;13.440;2022-07-29T09:28:55;23.40;59.60
2054;DHT22;1032;52.542;13.440;2022-07-29T09:31:32;23.40;60.90
2054;DHT22;1032;52.542;13.440;2022-07-29T09:33:59;23.40;60.00
2054;DHT22;1032;52.542;13.440;2022-07-29T09:36:26;23.30;59.90
2054;DHT22;1032;52.542;13.440;2022-07-29T09:38:57;23.40;60.00
2054;DHT22;1032;52.542;13.440;2022-07-29T09:41:25;23.50;59.90
2054;DHT22;1032;52.542;13.440;2022-07-29T09:43:55;23.60;59.80
2054;DHT22;1032;52.542;13.440;2022-07-29T09:46:24;23.20;59.20
2054;DHT22;1032;52.542;13.440;2022-07-29T09:51:44;23.80;57.90
2054;DHT22;1032;52.542;13.440;2022-07-29T09:54:24;23.90;58.00
2054;DHT22;1032;52.542;13.440;2022-07-29T09:56:52;23.60;57.80
2054;DHT22;1032;52.542;13.440;2022-07-29T09:59:20;24.20;58.30
2054;DHT22;1032;52.542;13.440;2022-07-29T10:01:51;24.30;58.10
2054;DHT22;1032;52.542;13.440;2022-07-29T10:04:19;24.30;57.60
2054;DHT22;1032;52.542;13.440;2022-07-29T10:06:57;24.60;57.10
2054;DHT22;1032;52.542;13.440;2022-07-29T10:09:24;24.60;56.10
2054;DHT22;1032;52.542;13.440;2022-07-29T10:12:08;24.50;55.80
2054;DHT22;1032;52.542;13.440;2022-07-29T10:14:36;25.10;54.50
2054;DHT22;1032;52.542;13.440;2022-07-29T10:17:05;24.90;54.50
2054;DHT22;1032;52.542;13.440;2022-07-29T10:19:33;25.30;54.30
2054;DHT22;1032;52.542;13.440;2022-07-29T10:22:04;25.30;53.40
2054;DHT22;1032;52.542;13.440;2022-07-29T10:24:32;25.30;52.80
2054;DHT22;1032;52.542;13.440;2022-07-29T10:27:01;25.20;52.50
2054;DHT22;1032;52.542;13.440;2022-07-29T10:29:29;25.10;52.90
2054;DHT22;1032;52.542;13.440;2022-07-29T10:32:23;25.20;53.00
2054;DHT22;1032;52.542;13.440;2022-07-29T10:35:06;25.20;52.40
2054;DHT22;1032;52.542;13.440;2022-07-29T10:37:52;24.90;52.10
2054;DHT22;1032;52.542;13.440;2022-07-29T10:40:28;25.20;52.10
2054;DHT22;1032;52.542;13.440;2022-07-29T10:43:18;25.20;52.10
2054;DHT22;1032;52.542;13.440;2022-07-29T10:45:47;24.90;52.40
2054;DHT22;1032;52.542;13.440;2022-07-29T10:48:14;24.80;52.30
2054;DHT22;1032;52.542;13.440;2022-07-29T10:50:55;25.10;52.50
2054;DHT22;1032;52.542;13.440;2022-07-29T10:53:24;25.00;52.20
2054;DHT22;1032;52.542;13.440;2022-07-29T10:55:51;25.20;52.00
2054;DHT22;1032;52.542;13.440;2022-07-29T10:58:19;25.40;52.10
2054;DHT22;1032;52.542;13.440;2022-07-29T11:00:48;25.60;51.80
2054;DHT22;1032;52.542;13.440;2022-07-29T11:03:42;25.70;51.20
2054;DHT22;1032;52.542;13.440;2022-07-29T11:06:09;25.90;51.20
2054;DHT22;1032;52.542;13.440;2022-07-29T11:08:36;26.00;51.30
2054;DHT22;1032;52.542;13.440;2022-07-29T11:11:30;26.10;51.20
2054;DHT22;1032;52.542;13.440;2022-07-29T11:13:57;26.20;50.20
2054;DHT22;1032;52.542;13.440;2022-07-29T11:16:24;26.10;50.30
2054;DHT22;1032;52.542;13.440;2022-07-29T11:19:19;26.30;50.00
2054;DHT22;1032;52.542;13.440;2022-07-29T11:21:46;26.40;50.40
2054;DHT22;1032;52.542;13.440;2022-07-29T11:24:18;26.30;50.60
2054;DHT22;1032;52.542;13.440;2022-07-29T11:27:12;26.20;51.20
2054;DHT22;1032;52.542;13.440;2022-07-29T11:29:47;26.30;50.80
2054;DHT22;1032;52.542;13.440;2022-07-29T11:32:15;26.30;51.00
2054;DHT22;1032;52.542;13.440;2022-07-29T11:34:43;26.00;50.90
2054;DHT22;1032;52.542;13.440;2022-07-29T11:37:18;26.30;51.00
2054;DHT22;1032;52.542;13.440;2022-07-29T11:42:38;26.40;51.30
2054;DHT22;1032;52.542;13.440;2022-07-29T11:45:06;26.50;51.20
2054;DHT22;1032;52.542;13.440;2022-07-29T11:47:36;26.50;51.50
2054;DHT22;1032;52.542;13.440;2022-07-29T11:50:05;26.40;51.80
2054;DHT22;1032;52.542;13.440;2022-07-29T11:52:33;26.40;52.60
2054;DHT22;1032;52.542;13.440;2022-07-29T11:55:05;26.30;52.10
2054;DHT22;1032;52.542;13.440;2022-07-29T11:57:34;26.20;52.10
2054;DHT22;1032;52.542;13.440;2022-07-29T12:00:02;26.20;52.30
2054;DHT22;1032;52.542;13.440;2022-07-29T12:02:39;26.20;52.60
2054;DHT22;1032;52.542;13.440;2022-07-29T12:05:08;26.20;53.10
2054;DHT22;1032;52.542;13.440;2022-07-29T12:07:34;25.80;53.40
2054;DHT22;1032;52.542;13.440;2022-07-29T12:10:04;26.20;53.80
2054;DHT22;1032;52.542;13.440;2022-07-29T12:12:31;26.20;54.20
2054;DHT22;1032;52.542;13.440;2022-07-29T12:14:58;26.10;54.20
2054;DHT22;1032;52.542;13.440;2022-07-29T12:17:28;26.10;54.50
2054;DHT22;1032;52.542;13.440;2022-07-29T12:19:55;25.80;54.80
2054;DHT22;1032;52.542;13.440;2022-07-29T12:22:26;26.10;55.40
2054;DHT22;1032;52.542;13.440;2022-07-29T12:24:53;28.00;56.90
2054;DHT22;1032;52.542;13.440;2022-07-29T12:27:21;26.00;56.10
2054;DHT22;1032;52.542;13.440;2022-07-29T12:29:55;26.10;56.40
2054;DHT22;1032;52.542;13.440;2022-07-29T12:32:22;25.90;56.50
2054;DHT22;1032;52.542;13.440;2022-07-29T12:34:50;26.10;56.90
2054;DHT22;1032;52.542;13.440;2022-07-29T12:37:17;26.00;56.80
2054;DHT22;1032;52.542;13.440;2022-07-29T12:39:44;26.00;56.80
2054;DHT22;1032;52.542;13.440;2022-07-29T12:42:12;26.00;56.70
2054;DHT22;1032;52.542;13.440;2022-07-29T12:44:47;26.20;56.50
2054;DHT22;1032;52.542;13.440;2022-07-29T12:47:14;26.80;56.80
2054;DHT22;1032;52.542;13.440;2022-07-29T12:49:41;26.20;56.40
2054;DHT22;1032;52.542;13.440;2022-07-29T12:52:24;26.20;56.50
2054;DHT22;1032;52.542;13.440;2022-07-29T12:54:50;26.00;56.60
2054;DHT22;1032;52.542;13.440;2022-07-29T12:57:17;26.40;56.50
2054;DHT22;1032;52.542;13.440;2022-07-29T12:59:45;26.40;56.40
2054;DHT22;1032;52.542;13.440;2022-07-29T13:02:24;26.30;56.40
2054;DHT22;1032;52.542;13.440;2022-07-29T13:04:55;26.30;56.40
2054;DHT22;1032;52.542;13.440;2022-07-29T13:07:24;26.00;56.00
2054;DHT22;1032;52.542;13.440;2022-07-29T13:09:51;26.40;56.20
2054;DHT22;1032;52.542;13.440;2022-07-29T13:12:18;26.20;56.10
2054;DHT22;1032;52.542;13.440;2022-07-29T13:14:48;26.10;56.20
2054;DHT22;1032;52.542;13.440;2022-07-29T13:17:16;26.50;55.90
2054;DHT22;1032;52.542;13.440;2022-07-29T13:19:44;26.30;55.50
2054;DHT22;1032;52.542;13.440;2022-07-29T13:22:14;26.40;55.70
2054;DHT22;1032;52.542;13.440;2022-07-29T13:24:48;26.70;55.60
2054;DHT22;1032;52.542;13.440;2022-07-29T13:27:15;26.70;55.40
2054;DHT22;1032;52.542;13.440;2022-07-29T13:29:42;26.70;55.40
2054;DHT22;1032;52.542;13.440;2022-07-29T13:32:11;26.70;55.20
2054;DHT22;1032;52.542;13.440;2022-07-29T13:34:38;26.70;55.00
2054;DHT22;1032;52.542;13.440;2022-07-29T13:37:04;26.80;55.00
2054;DHT22;1032;52.542;13.440;2022-07-29T13:39:31;26.70;54.90
2054;DHT22;1032;52.542;13.440;2022-07-29T13:41:58;27.00;55.00
2054;DHT22;1032;52.542;13.440;2022-07-29T13:44:24;26.90;55.00
2054;DHT22;1032;52.542;13.440;2022-07-29T13:46:51;26.80;55.00
2054;DHT22;1032;52.542;13.440;2022-07-29T13:49:19;27.10;54.90
2054;DHT22;1032;52.542;13.440;2022-07-29T13:51:47;27.20;55.00
2054;DHT22;1032;52.542;13.440;2022-07-29T13:54:14;27.20;54.90
2054;DHT22;1032;52.542;13.440;2022-07-29T13:56:41;27.30;54.80
2054;DHT22;1032;52.542;13.440;2022-07-29T13:59:08;27.30;54.60
2054;DHT22;1032;52.542;13.440;2022-07-29T14:01:35;27.30;54.30
2054;DHT22;1032;52.542;13.440;2022-07-29T14:04:02;27.30;54.20
2054;DHT22;1032;52.542;13.440;2022-07-29T14:06:30;27.40;54.10
2054;DHT22;1032;52.542;13.440;2022-07-29T14:08:57;27.40;53.90
2054;DHT22;1032;52.542;13.440;2022-07-29T14:11:23;27.40;53.90
2054;DHT22;1032;52.542;13.440;2022-07-29T14:13:50;27.40;54.00
2054;DHT22;1032;52.542;13.440;2022-07-29T14:16:17;27.50;54.00
2054;DHT22;1032;52.542;13.440;2022-07-29T14:18:44;27.30;53.90
2054;DHT22;1032;52.542;13.440;2022-07-29T14:21:10;27.30;53.90
2054;DHT22;1032;52.542;13.440;2022-07-29T14:23:38;27.50;54.00
2054;DHT22;1032;52.542;13.440;2022-07-29T14:26:06;25.30;52.60
2054;DHT22;1032;52.542;13.440;2022-07-29T14:28:33;27.60;53.90
2054;DHT22;1032;52.542;13.440;2022-07-29T14:30:59;27.60;53.70
2054;DHT22;1032;52.542;13.440;2022-07-29T14:33:26;27.60;53.70
2054;DHT22;1032;52.542;13.440;2022-07-29T14:35:52;27.90;53.90
2054;DHT22;1032;52.542;13.440;2022-07-29T14:38:19;27.70;53.40
2054;DHT22;1032;52.542;13.440;2022-07-29T14:40:47;27.70;53.30
2054;DHT22;1032;52.542;13.440;2022-07-29T14:43:14;27.60;53.30
2054;DHT22;1032;52.542;13.440;2022-07-29T14:45:41;27.60;53.40
2054;DHT22;1032;52.542;13.440;2022-07-29T14:48:08;27.40;53.50
2054;DHT22;1032;52.542;13.440;2022-07-29T14:50:35;27.50;53.40
2054;DHT22;1032;52.542;13.440;2022-07-29T14:53:02;27.50;53.40
2054;DHT22;1032;52.542;13.440;2022-07-29T14:55:29;27.50;53.20
2054;DHT22;1032;52.542;13.440;2022-07-29T14:57:57;27.50;52.70
2054;DHT22;1032;52.542;13.440;2022-07-29T15:00:25;27.60;52.60
2054;DHT22;1032;52.542;13.440;2022-07-29T15:02:51;27.50;52.60
2054;DHT22;1032;52.542;13.440;2022-07-29T15:05:18;27.50;52.40
2054;DHT22;1032;52.542;13.440;2022-07-29T15:07:45;27.80;52.10
2054;DHT22;1032;52.542;13.440;2022-07-29T15:10:11;28.00;51.80
2054;DHT22;1032;52.542;13.440;2022-07-29T15:12:38;28.00;51.60
2054;DHT22;1032;52.542;13.440;2022-07-29T15:15:07;27.80;51.10
2054;DHT22;1032;52.542;13.440;2022-07-29T15:17:34;28.10;51.30
2054;DHT22;1032;52.542;13.440;2022-07-29T15:20:01;28.10;51.10
2054;DHT22;1032;52.542;13.440;2022-07-29T15:22:28;28.00;51.30
2054;DHT22;1032;52.542;13.440;2022-07-29T15:24:54;28.00;51.40
2054;DHT22;1032;52.542;13.440;2022-07-29T15:27:21;28.00;52.00
2054;DHT22;1032;52.542;13.440;2022-07-29T15:29:47;28.00;51.50
2054;DHT22;1032;52.542;13.440;2022-07-29T15:32:15;28.00;51.40
2054;DHT22;1032;52.542;13.440;2022-07-29T15:34:42;27.90;51.30
2054;DHT22;1032;52.542;13.440;2022-07-29T15:37:09;27.60;51.20
2054;DHT22;1032;52.542;13.440;2022-07-29T15:39:36;27.70;51.40
2054;DHT22;1032;52.542;13.440;2022-07-29T15:42:04;27.50;51.40
2054;DHT22;1032;52.542;13.440;2022-07-29T15:44:30;27.80;51.70
2054;DHT22;1032;52.542;13.440;2022-07-29T15:46:57;27.70;51.70
2054;DHT22;1032;52.542;13.440;2022-07-29T15:49:33;27.70;51.60
2054;DHT22;1032;52.542;13.440;2022-07-29T15:52:02;27.70;51.60
2054;DHT22;1032;52.542;13.440;2022-07-29T15:54:31;27.60;51.70
2054;DHT22;1032;52.542;13.440;2022-07-29T15:56:58;27.50;51.80
2054;DHT22;1032;52.542;13.440;2022-07-29T15:59:25;27.40;51.80
2054;DHT22;1032;52.542;13.440;2022-07-29T16:01:52;27.30;51.90
2054;DHT22;1032;52.542;13.440;2022-07-29T16:04:19;27.10;51.70
2054;DHT22;1032;52.542;13.440;2022-07-29T16:06:47;27.40;52.00
2054;DHT22;1032;52.542;13.440;2022-07-29T16:09:15;27.40;52.00
2054;DHT22;1032;52.542;13.440;2022-07-29T16:11:42;27.40;52.00
2054;DHT22;1032;52.542;13.440;2022-07-29T16:14:10;27.30;52.00
2054;DHT22;1032;52.542;13.440;2022-07-29T16:16:38;27.40;52.10
2054;DHT22;1032;52.542;13.440;2022-07-29T16:19:05;27.40;52.20